Time;durP1;ratioP1;P1;durP2;ratioP2;P2;SDS_P1;SDS_P2;PMS_P1;PMS_P2;Temp;Humidity;BMP_temperature;BMP_pressure;BME280_temperature;BME280_humidity;BME280_pressure;Samples;Min_cycle;Max_cycle;Signal;HPM_P1;HPM_P2
2023/11/15 00:00:25;;;;;;;0.20;0.20;;;;;;;;;;7404885;19;20165;-92
2023/11/15 00:02:52;;;;;;;0.30;0.30;;;;;;;;;;7409826;19;20145;-94
2023/11/15 00:05:19;;;;;;;0.30;0.30;;;;;;;;;;7411413;19;20161;-95
2023/11/15 00:07:46;;;;;;;0.20;0.20;;;;;;;;;;7409925;19;20139;-93
2023/11/15 00:10:13;;;;;;;0.20;0.20;;;;;;;;;;7401648;19;20145;-94
2023/11/15 00:12:42;;;;;;;0.27;0.27;;;;;;;;;;7412882;19;20133;-95
2023/11/15 00:15:09;;;;;;;0.20;0.20;;;;;;;;;;7417125;19;20164;-93
2023/11/15 00:17:36;;;;;;;0.30;0.30;;;;;;;;;;7420452;19;20137;-96
2023/11/15 00:20:03;;;;;;;0.23;0.23;;;;;;;;;;7422111;19;20148;-94
2023/11/15 00:22:31;;;;;;;0.30;0.30;;;;;;;;;;7425628;19;20129;-94
2023/11/15 00:25:08;;;;;;;0.20;0.20;;;;;;;;;;7428678;19;20144;-96
2023/11/15 00:27:36;;;;;;;0.30;0.30;;;;;;;;;;7424785;19;20136;-96
2023/11/15 00:30:05;;;;;;;0.30;0.30;;;;;;;;;;7421516;19;20168;-93
2023/11/15 00:32:31;;;;;;;0.20;0.20;;;;;;;;;;7405089;19;20141;-94
2023/11/15 00:34:58;;;;;;;0.30;0.30;;;;;;;;;;7407912;19;20150;-93
2023/11/15 00:37:25;;;;;;;0.30;0.30;;;;;;;;;;7416718;19;20200;-94
2023/11/15 00:39:54;;;;;;;0.30;0.30;;;;;;;;;;7414729;19;20141;-93
2023/11/15 00:42:20;;;;;;;0.30;0.30;;;;;;;;;;7404973;19;20212;-93
2023/11/15 00:44:47;;;;;;;0.30;0.30;;;;;;;;;;7406506;19;20145;-92
2023/11/15 00:47:14;;;;;;;0.20;0.20;;;;;;;;;;7421031;19;20141;-93
2023/11/15 00:49:44;;;;;;;0.20;0.20;;;;;;;;;;7411749;19;20163;-93
2023/11/15 00:52:12;;;;;;;0.30;0.30;;;;;;;;;;7422114;19;20137;-96
2023/11/15 00:54:41;;;;;;;0.30;0.30;;;;;;;;;;7410490;19;20141;-94
2023/11/15 00:57:08;;;;;;;0.27;0.27;;;;;;;;;;7409977;19;20173;-94
2023/11/15 00:59:37;;;;;;;0.30;0.30;;;;;;;;;;7419522;19;20140;-94
2023/11/15 01:02:05;;;;;;;0.30;0.30;;;;;;;;;;7422454;19;20168;-94
2023/11/15 01:04:32;;;;;;;0.30;0.30;;;;;;;;;;7424057;19;20125;-94
2023/11/15 01:06:59;;;;;;;0.20;0.20;;;;;;;;;;7417397;19;20155;-95
2023/11/15 01:09:36;;;;;;;0.20;0.20;;;;;;;;;;7415745;19;20205;-93
2023/11/15 01:12:07;;;;;;;0.30;0.30;;;;;;;;;;7402604;19;20144;-94
2023/11/15 01:14:34;;;;;;;6.40;2.00;;;;;;;;;;7403647;19;20166;-93
2023/11/15 01:17:01;;;;;;;0.30;0.30;;;;;;;;;;7417391;19;20149;-94
2023/11/15 01:19:28;;;;;;;0.30;0.30;;;;;;;;;;7409256;19;20150;-94
2023/11/15 01:21:57;;;;;;;0.30;0.30;;;;;;;;;;7403417;19;20157;-94
2023/11/15 01:24:25;;;;;;;0.30;0.30;;;;;;;;;;7404755;19;20137;-92
2023/11/15 01:26:52;;;;;;;0.30;0.30;;;;;;;;;;7396002;19;20688;-93
2023/11/15 01:29:19;;;;;;;0.30;0.30;;;;;;;;;;7395026;19;20152;-92
2023/11/15 01:31:46;;;;;;;0.20;0.20;;;;;;;;;;7404287;19;20156;-91
2023/11/15 01:34:16;;;;;;;0.30;0.30;;;;;;;;;;7399954;19;20173;-93
2023/11/15 01:36:46;;;;;;;0.30;0.30;;;;;;;;;;7398599;19;20183;-93
2023/11/15 01:39:16;;;;;;;0.20;0.20;;;;;;;;;;7405333;19;20144;-93
2023/11/15 01:41:49;;;;;;;0.30;0.30;;;;;;;;;;7403840;19;20151;-94
2023/11/15 01:44:17;;;;;;;0.20;0.20;;;;;;;;;;7410686;19;20150;-92
2023/11/15 01:46:47;;;;;;;0.30;0.30;;;;;;;;;;7400565;19;20240;-93
2023/11/15 01:49:17;;;;;;;0.30;0.30;;;;;;;;;;7397530;19;20137;-93
2023/11/15 01:51:44;;;;;;;0.20;0.20;;;;;;;;;;7396057;19;20143;-92
2023/11/15 01:54:14;;;;;;;0.30;0.30;;;;;;;;;;7399056;19;20153;-93
2023/11/15 01:56:42;;;;;;;0.30;0.30;;;;;;;;;;7413139;19;20148;-94
2023/11/15 01:59:09;;;;;;;0.30;0.30;;;;;;;;;;7419969;19;20164;-93
2023/11/15 02:01:36;;;;;;;0.20;0.20;;;;;;;;;;7403039;19;20145;-93
2023/11/15 02:04:04;;;;;;;0.30;0.30;;;;;;;;;;7397514;19;20181;-93
2023/11/15 02:06:31;;;;;;;0.30;0.30;;;;;;;;;;7394006;19;20167;-93
2023/11/15 02:09:07;;;;;;;0.27;0.27;;;;;;;;;;7395817;19;20486;-92
2023/11/15 02:11:34;;;;;;;0.27;0.27;;;;;;;;;;7393036;19;20133;-93
2023/11/15 02:14:00;;;;;;;0.30;0.30;;;;;;;;;;7397336;19;20156;-92
2023/11/15 02:16:28;;;;;;;0.30;0.30;;;;;;;;;;7395646;19;20173;-92
2023/11/15 02:18:57;;;;;;;0.20;0.20;;;;;;;;;;7395002;19;20164;-92
2023/11/15 02:21:24;;;;;;;0.30;0.30;;;;;;;;;;7398486;19;20158;-93
2023/11/15 02:23:51;;;;;;;0.20;0.20;;;;;;;;;;7395144;19;20153;-92
2023/11/15 02:26:42;;;;;;;0.30;0.30;;;;;;;;;;7395407;19;20588;-93
2023/11/15 02:29:10;;;;;;;0.27;0.27;;;;;;;;;;7400824;19;20137;-92
2023/11/15 02:31:37;;;;;;;0.20;0.20;;;;;;;;;;7400461;19;20153;-93
2023/11/15 02:34:04;;;;;;;0.30;0.30;;;;;;;;;;7407373;19;20142;-91
2023/11/15 02:36:33;;;;;;;0.20;0.20;;;;;;;;;;7408548;19;20978;-93
2023/11/15 02:39:00;;;;;;;0.30;0.30;;;;;;;;;;7404436;19;20155;-94
2023/11/15 02:41:26;;;;;;;0.40;0.40;;;;;;;;;;7400556;19;20136;-94
2023/11/15 02:43:55;;;;;;;0.20;0.20;;;;;;;;;;7406966;19;20137;-94
2023/11/15 02:46:23;;;;;;;0.30;0.30;;;;;;;;;;7404179;19;20176;-94
2023/11/15 02:48:50;;;;;;;0.30;0.30;;;;;;;;;;7406398;19;20160;-93
2023/11/15 02:51:18;;;;;;;0.30;0.30;;;;;;;;;;7410251;19;20129;-93
2023/11/15 02:53:44;;;;;;;0.40;0.40;;;;;;;;;;7405392;19;20668;-94
2023/11/15 02:56:11;;;;;;;0.20;0.20;;;;;;;;;;7404035;19;20236;-94
2023/11/15 02:58:42;;;;;;;0.30;0.30;;;;;;;;;;7411566;19;20141;-93
2023/11/15 03:01:13;;;;;;;0.30;0.30;;;;;;;;;;7405239;19;20165;-94
2023/11/15 03:03:41;;;;;;;0.30;0.30;;;;;;;;;;7405481;19;20461;-92
2023/11/15 03:06:09;;;;;;;0.30;0.30;;;;;;;;;;7398086;19;20164;-96
2023/11/15 03:08:36;;;;;;;0.30;0.30;;;;;;;;;;7404574;19;20185;-94
2023/11/15 03:11:03;;;;;;;0.30;0.30;;;;;;;;;;7399815;19;20605;-93
2023/11/15 03:13:33;;;;;;;0.30;0.30;;;;;;;;;;7398707;19;20138;-93
2023/11/15 03:16:01;;;;;;;0.30;0.30;;;;;;;;;;7396714;19;20168;-94
2023/11/15 03:18:28;;;;;;;0.47;0.47;;;;;;;;;;7396534;19;20476;-93
2023/11/15 03:20:55;;;;;;;0.30;0.30;;;;;;;;;;7396265;19;20136;-92
2023/11/15 03:23:21;;;;;;;0.30;0.30;;;;;;;;;;7396849;19;20140;-92
2023/11/15 03:25:50;;;;;;;0.20;0.20;;;;;;;;;;7406894;19;20164;-94
2023/11/15 03:28:17;;;;;;;0.30;0.30;;;;;;;;;;7410457;19;20164;-93
2023/11/15 03:30:48;;;;;;;0.30;0.30;;;;;;;;;;7409453;19;20157;-93
2023/11/15 03:33:15;;;;;;;0.23;0.23;;;;;;;;;;7414916;19;20162;-93
2023/11/15 03:35:42;;;;;;;0.30;0.30;;;;;;;;;;7409446;19;20178;-92
2023/11/15 03:38:09;;;;;;;0.30;0.30;;;;;;;;;;7411261;19;20141;-92
2023/11/15 03:40:37;;;;;;;0.30;0.30;;;;;;;;;;7398687;19;20205;-93
2023/11/15 03:43:04;;;;;;;0.30;0.30;;;;;;;;;;7402437;19;20200;-93
2023/11/15 03:45:30;;;;;;;0.27;0.27;;;;;;;;;;7399292;19;20165;-94
2023/11/15 03:47:58;;;;;;;0.30;0.30;;;;;;;;;;7406679;19;20140;-94
2023/11/15 03:50:25;;;;;;;0.30;0.30;;;;;;;;;;7404623;19;20161;-93
2023/11/15 03:52:57;;;;;;;0.30;0.30;;;;;;;;;;7409679;19;20192;-93
2023/11/15 03:55:23;;;;;;;0.30;0.30;;;;;;;;;;7412975;19;20173;-93
2023/11/15 03:57:52;;;;;;;0.30;0.30;;;;;;;;;;7401899;19;20138;-93
2023/11/15 04:00:19;;;;;;;0.30;0.30;;;;;;;;;;7401464;19;20212;-92
2023/11/15 04:02:52;;;;;;;0.30;0.30;;;;;;;;;;7407142;19;20157;-93
2023/11/15 04:05:20;;;;;;;0.20;0.20;;;;;;;;;;7403069;19;20161;-93
2023/11/15 04:07:49;;;;;;;0.30;0.30;;;;;;;;;;7419370;19;20152;-96
2023/11/15 04:10:15;;;;;;;0.23;0.23;;;;;;;;;;7425327;19;20466;-94
2023/11/15 04:12:42;;;;;;;0.20;0.20;;;;;;;;;;7405444;19;20208;-93
2023/11/15 04:15:12;;;;;;;0.30;0.30;;;;;;;;;;7404517;19;20172;-94
2023/11/15 04:17:39;;;;;;;0.30;0.30;;;;;;;;;;7408023;19;20484;-93
2023/11/15 04:20:07;;;;;;;0.23;0.23;;;;;;;;;;7402851;19;20700;-93
2023/11/15 04:22:34;;;;;;;0.20;0.20;;;;;;;;;;7403602;19;20133;-92
2023/11/15 04:25:02;;;;;;;0.20;0.20;;;;;;;;;;7402783;19;20634;-94
2023/11/15 04:27:30;;;;;;;0.27;0.27;;;;;;;;;;7403151;19;20137;-92
2023/11/15 04:30:09;;;;;;;0.20;0.20;;;;;;;;;;7406336;19;20164;-94
2023/11/15 04:32:36;;;;;;;0.30;0.30;;;;;;;;;;7403115;19;20133;-94
2023/11/15 04:35:03;;;;;;;0.30;0.30;;;;;;;;;;7400804;19;20163;-94
2023/11/15 04:37:32;;;;;;;0.30;0.30;;;;;;;;;;7400958;19;20154;-94
2023/11/15 04:39:59;;;;;;;0.20;0.20;;;;;;;;;;7404017;19;20204;-93
2023/11/15 04:42:26;;;;;;;0.30;0.30;;;;;;;;;;7401608;19;20141;-93
2023/11/15 04:44:55;;;;;;;0.20;0.20;;;;;;;;;;7403380;19;20157;-93
2023/11/15 04:50:22;;;;;;;0.30;0.30;;;;;;;;;;7407770;19;20161;-92
2023/11/15 04:52:48;;;;;;;0.30;0.30;;;;;;;;;;7402303;19;20140;-94
2023/11/15 04:55:15;;;;;;;0.20;0.20;;;;;;;;;;7400457;19;20167;-94
2023/11/15 04:57:42;;;;;;;0.20;0.20;;;;;;;;;;7400928;19;20154;-93
2023/11/15 05:00:11;;;;;;;0.30;0.30;;;;;;;;;;7405556;19;20177;-94
2023/11/15 05:02:38;;;;;;;0.20;0.20;;;;;;;;;;7399162;19;20152;-93
2023/11/15 05:05:05;;;;;;;0.20;0.20;;;;;;;;;;7401320;19;20168;-93
2023/11/15 05:07:32;;;;;;;0.30;0.30;;;;;;;;;;7398793;19;20135;-92
2023/11/15 05:09:59;;;;;;;0.30;0.30;;;;;;;;;;7399324;19;20169;-92
2023/11/15 05:12:26;;;;;;;0.30;0.30;;;;;;;;;;7399779;19;20137;-94
2023/11/15 05:14:54;;;;;;;0.30;0.30;;;;;;;;;;7397656;19;20134;-93
2023/11/15 05:17:20;;;;;;;0.30;0.30;;;;;;;;;;7397384;19;20142;-94
2023/11/15 05:19:48;;;;;;;0.30;0.30;;;;;;;;;;7401139;19;20457;-93
2023/11/15 05:22:15;;;;;;;0.20;0.20;;;;;;;;;;7400407;19;20673;-93
2023/11/15 05:24:42;;;;;;;0.30;0.30;;;;;;;;;;7403427;19;20160;-93
2023/11/15 05:27:09;;;;;;;0.30;0.30;;;;;;;;;;7403540;19;20158;-93
2023/11/15 05:29:37;;;;;;;0.20;0.20;;;;;;;;;;7404695;19;20181;-94
2023/11/15 05:32:04;;;;;;;0.30;0.30;;;;;;;;;;7409382;19;20137;-94
2023/11/15 05:34:31;;;;;;;0.20;0.20;;;;;;;;;;7405942;19;20149;-92
2023/11/15 05:36:58;;;;;;;0.20;0.20;;;;;;;;;;7411558;19;20149;-94
2023/11/15 05:39:25;;;;;;;0.20;0.20;;;;;;;;;;7407518;19;20168;-93
2023/11/15 05:41:52;;;;;;;0.20;0.20;;;;;;;;;;7402266;19;20154;-94
2023/11/15 05:44:19;;;;;;;0.30;0.30;;;;;;;;;;7404599;19;20200;-93
2023/11/15 05:46:46;;;;;;;0.30;0.30;;;;;;;;;;7404997;19;20201;-94
2023/11/15 05:49:13;;;;;;;0.30;0.30;;;;;;;;;;7405097;19;20212;-94
2023/11/15 05:51:41;;;;;;;0.30;0.30;;;;;;;;;;7403651;19;20474;-95
2023/11/15 05:54:09;;;;;;;0.30;0.30;;;;;;;;;;7401745;19;20162;-93
2023/11/15 05:56:38;;;;;;;0.30;0.30;;;;;;;;;;7401917;19;20172;-94
2023/11/15 05:59:05;;;;;;;0.23;0.23;;;;;;;;;;7406756;19;20713;-94
2023/11/15 06:01:40;;;;;;;0.30;0.30;;;;;;;;;;7398613;19;20147;-93
2023/11/15 06:05:08;;;;;;;0.30;0.30;;;;;;;;;;7400935;19;20136;-93
2023/11/15 08:14:22;;;;;;;0.20;0.20;;;;;;;;;;7399784;19;20579;-90
2023/11/15 08:16:49;;;;;;;0.30;0.30;;;;;;;;;;7394262;19;20149;-91
2023/11/15 08:19:18;;;;;;;0.20;0.20;;;;;;;;;;7397869;19;20121;-93
2023/11/15 08:21:45;;;;;;;0.30;0.30;;;;;;;;;;7396054;19;20168;-91
2023/11/15 08:24:18;;;;;;;0.30;0.30;;;;;;;;;;7394584;19;20592;-90
2023/11/15 08:26:44;;;;;;;0.30;0.30;;;;;;;;;;7392705;19;20802;-90
2023/11/15 08:29:11;;;;;;;0.30;0.30;;;;;;;;;;7394985;19;20153;-92
2023/11/15 08:31:38;;;;;;;1.53;0.83;;;;;;;;;;7392704;19;20141;-92
2023/11/15 08:34:05;;;;;;;0.30;0.30;;;;;;;;;;7390677;19;20136;-92
2023/11/15 08:36:32;;;;;;;0.30;0.30;;;;;;;;;;7392493;19;20221;-91
2023/11/15 08:38:59;;;;;;;0.30;0.30;;;;;;;;;;7390440;19;20147;-92
2023/11/15 08:41:26;;;;;;;0.30;0.30;;;;;;;;;;7394488;19;20137;-90
2023/11/15 08:43:53;;;;;;;0.30;0.30;;;;;;;;;;7396415;19;20148;-91
2023/11/15 08:46:23;;;;;;;0.30;0.30;;;;;;;;;;7395888;19;20177;-89
2023/11/15 08:48:51;;;;;;;0.30;0.30;;;;;;;;;;7397414;19;20144;-90
2023/11/15 08:51:19;;;;;;;0.22;0.22;;;;;;;;;;7396882;19;20144;-91
2023/11/15 08:54:12;;;;;;;0.30;0.30;;;;;;;;;;7396307;19;20633;-90
2023/11/15 08:57:01;;;;;;;0.30;0.30;;;;;;;;;;7393657;19;20525;-90
2023/11/15 08:59:31;;;;;;;1.25;1.20;;;;;;;;;;7394334;19;20144;-90
2023/11/15 09:13:39;;;;;;;0.20;0.20;;;;;;;;;;7396424;19;20169;-90
2023/11/15 09:16:12;;;;;;;0.30;0.30;;;;;;;;;;7394867;19;20224;-89
2023/11/15 09:18:42;;;;;;;0.30;0.30;;;;;;;;;;7395066;19;20205;-90
2023/11/15 09:21:12;;;;;;;0.20;0.20;;;;;;;;;;7396026;19;20147;-89
2023/11/15 09:23:41;;;;;;;0.30;0.30;;;;;;;;;;7393942;19;20137;-91
2023/11/15 09:26:16;;;;;;;0.30;0.30;;;;;;;;;;7393299;19;20183;-89
2023/11/15 09:28:43;;;;;;;0.30;0.30;;;;;;;;;;7395571;19;20172;-90
2023/11/15 09:31:12;;;;;;;0.60;0.60;;;;;;;;;;7395586;19;20204;-89
2023/11/15 09:33:39;;;;;;;0.30;0.30;;;;;;;;;;7395117;19;20151;-90
2023/11/15 09:36:10;;;;;;;0.30;0.30;;;;;;;;;;7393048;19;20164;-90
2023/11/15 09:38:39;;;;;;;0.45;0.45;;;;;;;;;;7391752;19;20684;-88
2023/11/15 09:41:11;;;;;;;0.20;0.20;;;;;;;;;;7391470;19;20221;-90
2023/11/15 09:43:44;;;;;;;0.30;0.30;;;;;;;;;;7389673;19;20159;-88
2023/11/15 09:46:12;;;;;;;0.30;0.30;;;;;;;;;;7389154;19;20181;-90
2023/11/15 09:48:43;;;;;;;0.20;0.20;;;;;;;;;;7388299;19;20124;-88
2023/11/15 09:51:26;;;;;;;0.22;0.22;;;;;;;;;;7414389;19;20137;-92
2023/11/15 09:53:54;;;;;;;0.68;0.68;;;;;;;;;;7429513;19;20183;-90
2023/11/15 09:56:39;;;;;;;0.30;0.30;;;;;;;;;;7393646;19;20529;-89
2023/11/15 09:59:08;;;;;;;0.20;0.20;;;;;;;;;;7395948;19;20144;-90
2023/11/15 10:01:35;;;;;;;0.30;0.30;;;;;;;;;;7393929;19;20200;-89
2023/11/15 10:04:03;;;;;;;0.30;0.30;;;;;;;;;;7394281;19;20153;-90
2023/11/15 10:06:40;;;;;;;0.30;0.30;;;;;;;;;;7392397;19;20166;-88
2023/11/15 10:09:07;;;;;;;0.30;0.30;;;;;;;;;;7393799;19;20140;-89
2023/11/15 10:11:37;;;;;;;0.30;0.30;;;;;;;;;;7391617;19;20147;-88
2023/11/15 10:14:09;;;;;;;0.30;0.30;;;;;;;;;;7389961;19;20133;-89
2023/11/15 10:16:36;;;;;;;0.30;0.30;;;;;;;;;;7393037;19;20149;-88
2023/11/15 10:19:26;;;;;;;0.22;0.22;;;;;;;;;;7405744;19;20144;-92
2023/11/15 10:22:07;;;;;;;0.30;0.30;;;;;;;;;;7421012;19;20192;-92
2023/11/15 10:25:05;;;;;;;0.30;0.30;;;;;;;;;;7404330;19;20160;-91
2023/11/15 10:27:35;;;;;;;0.30;0.30;;;;;;;;;;7397431;19;20145;-90
2023/11/15 10:30:13;;;;;;;0.30;0.30;;;;;;;;;;7387810;19;20631;-89
2023/11/15 10:32:44;;;;;;;0.30;0.30;;;;;;;;;;7386688;19;20140;-91
2023/11/15 10:35:28;;;;;;;0.30;0.30;;;;;;;;;;7384514;19;20232;-89
2023/11/15 10:37:56;;;;;;;0.30;0.30;;;;;;;;;;7387490;19;20137;-90
2023/11/15 10:40:25;;;;;;;0.30;0.30;;;;;;;;;;7389420;19;20487;-90
2023/11/15 10:42:54;;;;;;;0.30;0.30;;;;;;;;;;7390430;19;20162;-91
2023/11/15 10:45:23;;;;;;;0.30;0.30;;;;;;;;;;7393757;19;20152;-89
2023/11/15 10:47:57;;;;;;;0.30;0.30;;;;;;;;;;7389182;19;20145;-90
2023/11/15 10:50:30;;;;;;;0.30;0.30;;;;;;;;;;7392207;19;20137;-89
2023/11/15 10:52:59;;;;;;;0.30;0.30;;;;;;;;;;7390786;19;21019;-91
2023/11/15 10:55:29;;;;;;;0.30;0.30;;;;;;;;;;7380659;19;20177;-92
2023/11/15 10:58:03;;;;;;;0.30;0.30;;;;;;;;;;7381898;19;20157;-90
2023/11/15 11:00:30;;;;;;;0.30;0.30;;;;;;;;;;7381972;19;20127;-92
2023/11/15 11:02:57;;;;;;;0.30;0.30;;;;;;;;;;7385547;19;20164;-91
2023/11/15 11:05:34;;;;;;;0.30;0.30;;;;;;;;;;7390605;19;20149;-91
2023/11/15 11:08:11;;;;;;;0.30;0.30;;;;;;;;;;7391197;19;20132;-91
2023/11/15 11:10:44;;;;;;;0.30;0.30;;;;;;;;;;7390475;19;20227;-90
2023/11/15 11:13:18;;;;;;;0.30;0.30;;;;;;;;;;7387936;19;20231;-91
2023/11/15 11:15:47;;;;;;;0.30;0.30;;;;;;;;;;7383300;19;20168;-90
2023/11/15 11:18:15;;;;;;;0.30;0.30;;;;;;;;;;7387116;19;20129;-90
2023/11/15 11:21:01;;;;;;;0.30;0.30;;;;;;;;;;7383786;19;20665;-91
2023/11/15 11:23:30;;;;;;;0.30;0.30;;;;;;;;;;7382749;19;20137;-91
2023/11/15 11:26:35;;;;;;;0.30;0.30;;;;;;;;;;7385257;19;20152;-90
2023/11/15 11:29:03;;;;;;;0.20;0.20;;;;;;;;;;7387304;19;20136;-92
2023/11/15 11:31:35;;;;;;;0.20;0.20;;;;;;;;;;7383601;19;20200;-92
2023/11/15 11:34:18;;;;;;;0.30;0.30;;;;;;;;;;7387442;19;20143;-92
2023/11/15 11:36:53;;;;;;;0.30;0.30;;;;;;;;;;7384378;19;20159;-92
2023/11/15 11:42:31;;;;;;;0.30;0.30;;;;;;;;;;7390041;19;20157;-91
2023/11/15 11:44:59;;;;;;;0.30;0.30;;;;;;;;;;7388051;19;20152;-90
2023/11/15 11:47:26;;;;;;;0.30;0.30;;;;;;;;;;7393992;19;20141;-91
2023/11/15 11:50:00;;;;;;;0.30;0.30;;;;;;;;;;7391612;19;20601;-87
2023/11/15 11:52:29;;;;;;;0.27;0.27;;;;;;;;;;7398131;19;20141;-92
2023/11/15 11:55:38;;;;;;;0.30;0.30;;;;;;;;;;7390207;19;20183;-92
2023/11/15 11:58:36;;;;;;;0.30;0.30;;;;;;;;;;7391466;19;20192;-92
2023/11/15 12:29:26;;;;;;;0.30;0.30;;;;;;;;;;7403396;19;20684;-90
2023/11/15 12:32:03;;;;;;;0.30;0.30;;;;;;;;;;7425967;19;20133;-94
2023/11/15 12:44:45;;;;;;;0.30;0.30;;;;;;;;;;7403480;19;20136;-92
2023/11/15 12:47:27;;;;;;;0.30;0.30;;;;;;;;;;7399737;19;20489;-91
2023/11/15 12:49:55;;;;;;;0.20;0.20;;;;;;;;;;7399914;19;20160;-93
2023/11/15 12:52:33;;;;;;;0.30;0.30;;;;;;;;;;7399996;19;20710;-91
2023/11/15 12:55:09;;;;;;;0.30;0.30;;;;;;;;;;7395126;19;20502;-89
2023/11/15 12:57:49;;;;;;;0.28;0.28;;;;;;;;;;7397169;19;20145;-90
2023/11/15 13:00:31;;;;;;;0.30;0.30;;;;;;;;;;7397125;19;20212;-90
2023/11/15 13:03:15;;;;;;;0.30;0.30;;;;;;;;;;7396226;19;20618;-93
2023/11/15 13:05:42;;;;;;;0.22;0.22;;;;;;;;;;7392165;19;20509;-90
2023/11/15 13:08:08;;;;;;;0.30;0.30;;;;;;;;;;7395550;19;20245;-93
2023/11/15 13:10:39;;;;;;;0.20;0.20;;;;;;;;;;7388595;19;20158;-92
2023/11/15 13:13:11;;;;;;;0.30;0.30;;;;;;;;;;7395350;19;20617;-94
2023/11/15 13:15:38;;;;;;;0.20;0.20;;;;;;;;;;7403379;19;20220;-93
2023/11/15 13:18:06;;;;;;;0.20;0.20;;;;;;;;;;7392049;19;20133;-92
2023/11/15 13:20:37;;;;;;;0.30;0.30;;;;;;;;;;7395286;19;20161;-93
2023/11/15 13:23:12;;;;;;;0.60;0.60;;;;;;;;;;7393853;19;20122;-92
2023/11/15 13:25:48;;;;;;;0.30;0.30;;;;;;;;;;7389947;19;20629;-92
2023/11/15 13:28:46;;;;;;;;;;;;;;;;;;;;;
2023/11/15 13:31:32;;;;;;;0.30;0.30;;;;;;;;;;7387245;19;20160;-93
2023/11/15 13:33:59;;;;;;;0.30;0.30;;;;;;;;;;7392133;19;20245;-94
2023/11/15 13:44:53;;;;;;;0.30;0.30;;;;;;;;;;7394144;19;20166;-92
2023/11/15 13:47:28;;;;;;;0.30;0.30;;;;;;;;;;7387376;19;20166;-90
2023/11/15 14:24:38;;;;;;;0.30;0.30;;;;;;;;;;7398334;19;20151;-93
2023/11/15 14:27:15;;;;;;;0.30;0.30;;;;;;;;;;7396693;19;20137;-92
2023/11/15 14:29:48;;;;;;;0.30;0.30;;;;;;;;;;7388734;19;20128;-93
2023/11/15 14:32:17;;;;;;;0.30;0.30;;;;;;;;;;7388275;19;20144;-95
2023/11/15 14:34:44;;;;;;;0.20;0.20;;;;;;;;;;7393600;19;20141;-92
2023/11/15 14:37:12;;;;;;;0.30;0.30;;;;;;;;;;7388452;19;20137;-92
2023/11/15 14:39:39;;;;;;;0.20;0.20;;;;;;;;;;7395687;19;20137;-90
2023/11/15 14:42:07;;;;;;;0.20;0.20;;;;;;;;;;7392080;19;20503;-94
2023/11/15 14:44:40;;;;;;;0.27;0.27;;;;;;;;;;7396512;19;20136;-91
2023/11/15 14:47:17;;;;;;;0.30;0.30;;;;;;;;;;7392224;19;20187;-93
2023/11/15 14:49:44;;;;;;;0.30;0.30;;;;;;;;;;7391888;19;20525;-91
2023/11/15 14:52:12;;;;;;;0.20;0.20;;;;;;;;;;7394403;19;20293;-92
2023/11/15 14:54:46;;;;;;;0.30;0.30;;;;;;;;;;7390704;19;20141;-93
2023/11/15 14:57:13;;;;;;;0.20;0.20;;;;;;;;;;7393040;19;20149;-91
2023/11/15 14:59:47;;;;;;;0.30;0.30;;;;;;;;;;7392628;19;20161;-93
2023/11/15 15:02:18;;;;;;;0.20;0.20;;;;;;;;;;7394147;19;20164;-91
2023/11/15 15:04:45;;;;;;;0.20;0.20;;;;;;;;;;7395309;19;20212;-93
2023/11/15 15:07:15;;;;;;;0.30;0.30;;;;;;;;;;7389780;19;20145;-92
2023/11/15 15:09:42;;;;;;;0.30;0.30;;;;;;;;;;7391020;19;20125;-92
2023/11/15 15:12:09;;;;;;;0.57;0.57;;;;;;;;;;7405812;19;20141;-91
2023/11/15 15:14:41;;;;;;;0.30;0.30;;;;;;;;;;7418713;19;20141;-92
2023/11/15 15:17:11;;;;;;;0.30;0.30;;;;;;;;;;7391192;19;20157;-92
2023/11/15 15:19:50;;;;;;;0.30;0.30;;;;;;;;;;7392015;19;20160;-92
2023/11/15 15:22:18;;;;;;;0.30;0.30;;;;;;;;;;7390022;19;20143;-93
2023/11/15 15:24:45;;;;;;;0.40;0.40;;;;;;;;;;7388739;19;20154;-92
2023/11/15 15:27:12;;;;;;;0.30;0.30;;;;;;;;;;7388896;19;20133;-94
2023/11/15 15:29:42;;;;;;;0.30;0.30;;;;;;;;;;7392585;19;20541;-93
2023/11/15 15:32:11;;;;;;;0.30;0.30;;;;;;;;;;7386198;19;20152;-93
2023/11/15 15:34:40;;;;;;;0.37;0.37;;;;;;;;;;7386840;19;20539;-92
2023/11/15 15:37:09;;;;;;;0.50;0.50;;;;;;;;;;7393976;19;20172;-93
2023/11/15 15:39:46;;;;;;;0.30;0.30;;;;;;;;;;7392608;19;20145;-91
2023/11/15 15:42:14;;;;;;;0.20;0.20;;;;;;;;;;7393445;19;20145;-90
2023/11/15 15:44:41;;;;;;;0.30;0.30;;;;;;;;;;7390302;19;20895;-92
2023/11/15 15:47:10;;;;;;;0.30;0.30;;;;;;;;;;7392246;19;20178;-93
2023/11/15 15:49:44;;;;;;;0.30;0.30;;;;;;;;;;7399779;19;20145;-93
2023/11/15 15:52:15;;;;;;;0.30;0.30;;;;;;;;;;7419169;19;20141;-93
2023/11/15 15:54:43;;;;;;;0.30;0.30;;;;;;;;;;7411103;19;20188;-94
2023/11/15 15:57:10;;;;;;;0.30;0.30;;;;;;;;;;7410028;19;20157;-94
2023/11/15 15:59:40;;;;;;;0.30;0.30;;;;;;;;;;7402796;19;20133;-93
2023/11/15 16:02:13;;;;;;;0.30;0.30;;;;;;;;;;7396963;19;20156;-91
2023/11/15 16:04:42;;;;;;;0.27;0.27;;;;;;;;;;7400791;19;20137;-91
2023/11/15 16:07:12;;;;;;;0.30;0.30;;;;;;;;;;7399524;19;20164;-93
2023/11/15 16:09:43;;;;;;;0.30;0.30;;;;;;;;;;7405766;19;20439;-95
2023/11/15 16:12:13;;;;;;;0.30;0.30;;;;;;;;;;7403730;19;20144;-93
2023/11/15 16:14:42;;;;;;;0.30;0.30;;;;;;;;;;7403476;19;20608;-93
2023/11/15 16:17:10;;;;;;;0.40;0.40;;;;;;;;;;7400396;19;20183;-95
2023/11/15 16:19:47;;;;;;;0.30;0.30;;;;;;;;;;7400908;19;20638;-94
2023/11/15 16:22:14;;;;;;;0.30;0.30;;;;;;;;;;7405752;19;20481;-94
2023/11/15 16:24:41;;;;;;;0.40;0.40;;;;;;;;;;7399007;19;20145;-90
2023/11/15 16:27:08;;;;;;;1.23;1.13;;;;;;;;;;7398159;19;20494;-92
2023/11/15 16:29:37;;;;;;;0.30;0.30;;;;;;;;;;7402911;19;20149;-93
2023/11/15 16:32:04;;;;;;;0.30;0.30;;;;;;;;;;7429199;19;20144;-94
2023/11/15 16:34:30;;;;;;;0.30;0.30;;;;;;;;;;7420998;19;20152;-93
2023/11/15 16:36:57;;;;;;;0.30;0.30;;;;;;;;;;7419876;19;20160;-93
